Time;durP1;ratioP1;P1;durP2;ratioP2;P2;SDS_P1;SDS_P2;PMS_P1;PMS_P2;Temp;Humidity;BMP_temperature;BMP_pressure;BME280_temperature;BME280_humidity;BME280_pressure;Samples;Min_cycle;Max_cycle;Signal;HPM_P1;HPM_P2
2022/08/01 00:01:14;;;;;;;4.33;2.60;;;18.20;99.90;;;;;;5014634;28;20183;-85
2022/08/01 00:03:39;;;;;;;5.30;3.20;;;18.20;99.90;;;;;;5014444;28;20256;-83
2022/08/01 00:06:05;;;;;;;5.40;3.77;;;18.30;99.90;;;;;;5014400;28;20412;-85
2022/08/01 00:08:31;;;;;;;4.07;3.60;;;18.30;99.90;;;;;;5013101;28;20176;-85
2022/08/01 00:10:56;;;;;;;4.90;3.30;;;18.30;99.90;;;;;;5014423;28;20518;-83
2022/08/01 00:13:22;;;;;;;3.97;3.57;;;18.30;99.90;;;;;;5014034;28;20456;-82
2022/08/01 00:15:47;;;;;;;4.10;3.50;;;18.30;99.90;;;;;;5014295;28;20257;-83
2022/08/01 00:18:12;;;;;;;3.40;3.10;;;18.30;99.90;;;;;;5013971;28;20221;-81
2022/08/01 00:20:38;;;;;;;4.37;3.17;;;18.30;99.90;;;;;;5014216;28;20636;-83
2022/08/01 00:23:03;;;;;;;4.10;2.60;;;18.40;99.90;;;;;;5013972;28;20223;-84
2022/08/01 00:25:29;;;;;;;4.47;4.07;;;18.30;99.90;;;;;;5012512;28;20208;-84
2022/08/01 00:27:54;;;;;;;4.53;3.67;;;18.30;99.90;;;;;;5012423;28;20181;-79
2022/08/01 00:30:20;;;;;;;5.13;4.03;;;18.40;99.90;;;;;;5014015;28;20609;-83
2022/08/01 00:32:45;;;;;;;4.87;3.93;;;18.40;99.90;;;;;;5014043;28;20178;-82
2022/08/01 00:35:11;;;;;;;4.97;3.87;;;18.40;99.90;;;;;;5013845;28;20173;-79
2022/08/01 00:37:37;;;;;;;4.50;3.67;;;18.40;99.90;;;;;;5013903;28;20573;-84
2022/08/01 00:40:03;;;;;;;5.90;4.27;;;18.40;99.90;;;;;;5013953;28;20424;-80
2022/08/01 00:42:31;;;;;;;3.63;3.03;;;18.40;99.90;;;;;;5013788;28;20181;-80
2022/08/01 00:44:56;;;;;;;4.00;3.47;;;18.40;99.90;;;;;;5013472;28;20978;-82
2022/08/01 00:47:22;;;;;;;4.43;3.77;;;18.40;99.90;;;;;;5013751;28;20416;-82
2022/08/01 00:49:47;;;;;;;3.47;3.10;;;18.40;99.90;;;;;;5013475;28;20217;-82
2022/08/01 00:52:13;;;;;;;4.87;3.57;;;18.40;99.90;;;;;;5013540;28;20208;-83
2022/08/01 00:54:39;;;;;;;4.00;3.03;;;18.30;99.90;;;;;;5013605;28;20239;-81
2022/08/01 00:57:04;;;;;;;3.87;3.33;;;18.30;99.90;;;;;;5013518;28;20637;-83
2022/08/01 00:59:30;;;;;;;4.60;3.70;;;18.30;99.90;;;;;;5013156;28;20173;-83
2022/08/01 01:01:56;;;;;;;6.90;4.57;;;18.30;99.90;;;;;;5013535;28;20255;-82
2022/08/01 01:04:22;;;;;;;5.97;3.47;;;18.30;99.90;;;;;;5013411;28;20318;-83
2022/08/01 01:07:13;;;;;;;5.20;3.73;;;18.20;99.90;;;;;;5012132;28;20651;-83
2022/08/01 01:09:57;;;;;;;6.50;5.70;;;18.30;99.90;;;;;;5012829;28;20409;-83
2022/08/01 01:12:42;;;;;;;6.00;3.00;;;18.30;99.90;;;;;;5012059;28;20415;-83
2022/08/01 01:15:15;;;;;;;4.70;3.97;;;18.20;99.90;;;;;;5012982;28;20470;-82
2022/08/01 01:17:57;;;;;;;5.60;3.87;;;18.20;99.90;;;;;;5013213;28;20470;-83
2022/08/01 01:20:30;;;;;;;4.83;3.40;;;18.20;99.90;;;;;;5013201;28;20543;-83
2022/08/01 01:23:29;;;;;;;4.83;3.53;;;18.20;99.90;;;;;;5013136;28;20411;-81
2022/08/01 01:26:25;;;;;;;3.87;3.00;;;18.20;99.90;;;;;;5012631;28;20466;-83
2022/08/01 01:29:08;;;;;;;6.23;3.47;;;18.20;99.90;;;;;;5012310;28;20439;-83
2022/08/01 01:31:57;;;;;;;4.63;3.30;;;18.20;99.90;;;;;;5013021;28;20423;-83
2022/08/01 01:34:23;;;;;;;3.77;2.20;;;18.20;99.90;;;;;;5013052;28;20471;-84
2022/08/01 01:36:51;;;;;;;4.00;2.83;;;18.20;99.90;;;;;;5012951;28;20504;-82
2022/08/01 01:39:18;;;;;;;4.20;2.97;;;18.20;99.90;;;;;;5012971;28;20414;-83
2022/08/01 01:41:46;;;;;;;4.33;3.47;;;18.30;99.90;;;;;;5012877;28;20449;-82
2022/08/01 01:44:14;;;;;;;3.70;2.67;;;18.20;99.90;;;;;;4995003;28;21007;-79
2022/08/01 01:46:41;;;;;;;4.00;2.23;;;18.20;99.90;;;;;;5012857;28;20434;-81
2022/08/01 01:49:10;;;;;;;5.37;3.70;;;18.30;99.90;;;;;;5012753;28;20424;-82
2022/08/01 01:51:36;;;;;;;3.60;2.60;;;18.20;99.90;;;;;;5012780;28;20909;-81
2022/08/01 01:54:04;;;;;;;4.30;2.80;;;18.20;99.90;;;;;;5012750;28;20412;-83
2022/08/01 01:56:30;;;;;;;4.90;3.30;;;18.20;99.90;;;;;;5012693;28;20464;-85
2022/08/01 01:59:00;;;;;;;4.30;2.33;;;18.20;99.90;;;;;;5012439;28;20440;-83
2022/08/01 02:01:28;;;;;;;5.03;2.83;;;18.20;99.90;;;;;;5012754;28;20788;-83
2022/08/01 02:03:56;;;;;;;3.57;2.60;;;18.20;99.90;;;;;;5012778;28;20430;-84
2022/08/01 02:06:23;;;;;;;4.17;3.53;;;18.20;99.90;;;;;;5012726;28;20457;-85
2022/08/01 02:08:49;;;;;;;3.97;3.23;;;18.20;99.90;;;;;;5012641;28;20422;-84
2022/08/01 02:11:18;;;;;;;3.70;2.93;;;18.20;99.90;;;;;;5012660;28;20515;-84
2022/08/01 02:13:56;;;;;;;3.17;2.80;;;18.20;99.90;;;;;;5012376;28;20455;-84
2022/08/01 02:16:25;;;;;;;4.63;2.40;;;18.20;99.90;;;;;;5012581;28;20458;-84
2022/08/01 02:18:57;;;;;;;5.00;2.87;;;18.20;99.90;;;;;;4995079;28;20956;-84
2022/08/01 02:21:32;;;;;;;5.07;2.33;;;18.20;99.90;;;;;;5014102;28;20966;-84
2022/08/01 02:24:08;;;;;;;3.80;2.70;;;18.20;99.90;;;;;;5016659;28;20842;-84
2022/08/01 02:26:38;;;;;;;4.13;2.33;;;18.20;99.90;;;;;;4998762;28;20419;-84
2022/08/01 02:29:10;;;;;;;4.97;2.90;;;18.10;99.90;;;;;;5015912;28;20443;-83
2022/08/01 02:31:39;;;;;;;3.63;2.50;;;18.10;99.90;;;;;;5016101;28;20952;-85
2022/08/01 02:34:09;;;;;;;3.33;2.57;;;18.10;99.90;;;;;;5016107;28;20502;-83
2022/08/01 02:36:36;;;;;;;3.37;1.87;;;18.00;99.90;;;;;;5016089;28;20465;-82
2022/08/01 02:39:06;;;;;;;4.23;2.33;;;18.10;99.90;;;;;;5016041;28;20920;-84
2022/08/01 02:41:37;;;;;;;3.17;1.77;;;18.10;99.90;;;;;;5015986;28;20501;-84
2022/08/01 02:44:06;;;;;;;3.40;2.60;;;18.00;99.90;;;;;;5015710;28;20414;-85
2022/08/01 02:46:57;;;;;;;2.53;2.20;;;18.00;99.90;;;;;;5015944;28;20483;-82
2022/08/01 02:49:25;;;;;;;2.40;1.93;;;18.00;99.90;;;;;;5015828;28;20501;-84
2022/08/01 02:51:54;;;;;;;3.13;2.30;;;18.00;99.90;;;;;;5015786;28;20506;-83
2022/08/01 02:54:21;;;;;;;2.83;2.27;;;18.00;99.90;;;;;;5015761;28;20411;-83
2022/08/01 02:56:48;;;;;;;2.43;1.67;;;18.00;99.90;;;;;;5015727;28;20549;-82
2022/08/01 02:59:17;;;;;;;2.87;2.20;;;18.00;99.90;;;;;;5015391;28;20429;-84
2022/08/01 03:01:45;;;;;;;2.50;1.63;;;18.00;99.90;;;;;;5015608;28;20510;-84
2022/08/01 03:04:12;;;;;;;2.57;1.80;;;18.00;99.90;;;;;;5015704;28;20427;-84
2022/08/01 03:06:38;;;;;;;2.73;1.73;;;18.00;99.90;;;;;;5015723;28;20507;-85
2022/08/01 03:09:05;;;;;;;2.10;1.43;;;18.00;99.90;;;;;;5015606;28;20487;-85
2022/08/01 03:11:33;;;;;;;4.60;2.40;;;18.00;99.90;;;;;;5015325;28;20425;-83
2022/08/01 03:14:04;;;;;;;2.17;1.60;;;18.00;99.90;;;;;;5015236;28;20778;-83
2022/08/01 03:16:36;;;;;;;4.17;2.10;;;18.00;99.90;;;;;;5015267;28;20461;-85
2022/08/01 03:19:06;;;;;;;2.40;1.60;;;17.90;99.90;;;;;;4997845;28;20981;-85
2022/08/01 03:21:34;;;;;;;2.40;1.40;;;17.90;99.90;;;;;;5015267;28;20490;-83
2022/08/01 03:24:01;;;;;;;2.50;1.60;;;17.90;99.90;;;;;;5015300;28;20509;-82
2022/08/01 03:26:33;;;;;;;3.03;1.90;;;17.90;99.90;;;;;;5015263;28;20411;-84
2022/08/01 03:29:06;;;;;;;3.70;2.07;;;17.90;99.90;;;;;;4997304;28;20507;-86
2022/08/01 03:31:34;;;;;;;2.07;1.87;;;17.90;99.90;;;;;;5014511;28;21020;-86
2022/08/01 03:34:00;;;;;;;3.60;1.70;;;17.90;99.90;;;;;;5015058;28;20417;-84
2022/08/01 03:36:28;;;;;;;2.53;1.80;;;17.90;99.90;;;;;;5014996;28;20469;-85
2022/08/01 03:38:57;;;;;;;2.13;1.57;;;17.90;99.90;;;;;;5015087;28;20185;-86
2022/08/01 03:41:26;;;;;;;2.37;1.60;;;17.90;99.90;;;;;;5015048;28;20422;-83
2022/08/01 03:44:03;;;;;;;3.00;1.53;;;17.90;99.90;;;;;;5014472;28;20560;-84
2022/08/01 03:46:59;;;;;;;2.63;2.10;;;17.90;99.90;;;;;;5014995;28;20420;-84
2022/08/01 03:49:29;;;;;;;3.77;2.17;;;17.90;99.90;;;;;;5002068;28;20422;-86
2022/08/01 03:51:56;;;;;;;2.43;1.50;;;17.90;99.90;;;;;;5014805;28;20971;-86
2022/08/01 03:54:25;;;;;;;2.60;1.50;;;17.90;99.90;;;;;;5014579;28;20551;-84
2022/08/01 03:56:52;;;;;;;2.27;1.30;;;17.90;99.90;;;;;;5014657;28;20462;-85
2022/08/01 03:59:30;;;;;;;2.47;1.03;;;17.90;99.90;;;;;;5014186;28;20941;-85
2022/08/01 04:01:57;;;;;;;3.40;1.87;;;17.80;99.90;;;;;;5014556;28;20510;-84
2022/08/01 04:04:22;;;;;;;2.80;1.50;;;17.90;99.90;;;;;;5014509;28;20416;-86
2022/08/01 04:06:53;;;;;;;2.27;1.50;;;17.90;99.90;;;;;;5014489;28;20828;-83
2022/08/01 04:09:20;;;;;;;1.80;0.93;;;17.90;99.90;;;;;;5014412;28;20443;-84
2022/08/01 04:11:45;;;;;;;5.17;2.70;;;17.90;99.90;;;;;;4996782;28;20451;-85
2022/08/01 04:14:13;;;;;;;1.60;1.00;;;17.90;99.90;;;;;;5014044;28;20601;-86
2022/08/01 04:16:39;;;;;;;1.53;1.03;;;17.90;99.90;;;;;;5014169;28;20548;-85
2022/08/01 04:19:07;;;;;;;1.13;0.40;;;17.90;99.90;;;;;;5014213;28;20430;-84
2022/08/01 04:21:35;;;;;;;2.13;1.07;;;17.90;99.90;;;;;;5014169;28;20200;-86
2022/08/01 04:24:08;;;;;;;2.83;0.80;;;17.90;99.90;;;;;;5014223;28;20442;-85
2022/08/01 04:26:35;;;;;;;2.00;1.10;;;17.90;99.90;;;;;;5014014;28;20421;-83
2022/08/01 04:29:04;;;;;;;2.73;1.63;;;17.90;99.90;;;;;;5013726;28;20453;-83
2022/08/01 04:31:32;;;;;;;2.30;0.83;;;17.90;99.90;;;;;;5013977;28;20445;-83
2022/08/01 04:33:59;;;;;;;1.60;0.63;;;17.90;99.90;;;;;;5013850;28;20933;-84
2022/08/01 04:36:28;;;;;;;1.80;0.73;;;18.00;99.90;;;;;;5013790;28;20551;-82
2022/08/01 04:38:59;;;;;;;2.10;1.10;;;18.00;99.90;;;;;;5013927;28;20458;-82
2022/08/01 04:41:25;;;;;;;1.60;1.10;;;18.00;99.90;;;;;;5013847;28;20411;-80
2022/08/01 04:43:52;;;;;;;1.13;0.73;;;18.00;99.90;;;;;;5012617;28;20424;-83
2022/08/01 04:46:18;;;;;;;1.90;0.50;;;18.00;99.90;;;;;;5013735;28;20291;-83
2022/08/01 04:48:45;;;;;;;2.00;0.90;;;18.10;99.90;;;;;;5013565;28;20974;-83
2022/08/01 04:51:18;;;;;;;1.47;0.70;;;18.10;99.90;;;;;;5013478;28;20470;-84
2022/08/01 04:53:45;;;;;;;1.83;0.60;;;18.10;99.90;;;;;;5013627;28;20456;-85
2022/08/01 04:56:12;;;;;;;2.87;1.00;;;18.20;99.90;;;;;;4995816;28;20464;-85
2022/08/01 04:58:39;;;;;;;1.30;0.43;;;18.20;99.90;;;;;;5013093;28;20436;-84
2022/08/01 05:01:05;;;;;;;1.20;0.73;;;18.20;99.90;;;;;;5013446;28;20421;-83
2022/08/01 05:03:30;;;;;;;1.97;0.53;;;18.20;99.90;;;;;;5013230;28;20486;-84
2022/08/01 05:05:59;;;;;;;0.93;0.53;;;18.20;99.90;;;;;;5013412;28;20184;-84
2022/08/01 05:08:24;;;;;;;1.00;0.47;;;18.30;99.90;;;;;;5013364;28;20177;-84
2022/08/01 05:10:50;;;;;;;1.73;0.97;;;18.30;99.90;;;;;;4995775;28;20433;-85
2022/08/01 05:13:15;;;;;;;1.43;0.97;;;18.20;99.90;;;;;;5012947;28;20653;-85
2022/08/01 05:15:41;;;;;;;2.90;1.07;;;18.20;99.90;;;;;;5013172;28;20181;-83
2022/08/01 05:18:07;;;;;;;1.93;0.73;;;18.30;99.90;;;;;;5013185;28;20568;-84
2022/08/01 05:20:32;;;;;;;2.43;1.60;;;18.30;99.90;;;;;;5013247;28;20170;-84
2022/08/01 05:22:58;;;;;;;1.93;0.70;;;18.40;99.90;;;;;;5013111;28;20181;-83
2022/08/01 05:25:23;;;;;;;2.47;0.50;;;18.50;99.90;;;;;;5013236;28;20186;-83
2022/08/01 05:27:49;;;;;;;0.77;0.50;;;18.50;99.90;;;;;;5012667;28;20272;-83
2022/08/01 05:30:15;;;;;;;0.87;0.40;;;18.40;99.90;;;;;;5013083;28;20704;-83
2022/08/01 05:32:41;;;;;;;0.47;0.20;;;18.30;99.90;;;;;;5013092;28;20510;-83
2022/08/01 05:35:07;;;;;;;0.87;0.20;;;18.30;99.90;;;;;;5012999;28;20232;-85
2022/08/01 05:37:33;;;;;;;0.70;0.20;;;18.30;99.90;;;;;;5012766;28;20227;-83
2022/08/01 05:39:58;;;;;;;1.30;0.73;;;18.20;99.90;;;;;;4995542;28;20427;-82
2022/08/01 05:42:27;;;;;;;2.10;1.27;;;18.20;99.90;;;;;;5012560;28;20185;-83
2022/08/01 05:44:52;;;;;;;0.60;0.27;;;18.00;99.90;;;;;;5013000;28;20177;-83
2022/08/01 05:47:18;;;;;;;0.80;0.20;;;18.00;99.90;;;;;;5012990;28;20457;-84
2022/08/01 05:49:45;;;;;;;0.70;0.30;;;18.00;99.90;;;;;;5012687;28;20263;-84
2022/08/01 05:52:10;;;;;;;0.80;0.20;;;18.10;99.90;;;;;;4995373;28;20192;-85
2022/08/01 05:54:36;;;;;;;0.70;0.30;;;18.10;99.90;;;;;;4995669;28;20427;-83
2022/08/01 05:57:02;;;;;;;0.60;0.20;;;18.20;99.90;;;;;;5016527;28;20216;-83
2022/08/01 05:59:28;;;;;;;0.53;0.20;;;18.30;99.90;;;;;;5017116;28;20181;-83
2022/08/01 06:01:54;;;;;;;2.60;0.20;;;18.40;99.90;;;;;;5016686;28;20425;-84
2022/08/01 06:04:19;;;;;;;1.50;0.70;;;18.40;99.90;;;;;;5016923;28;20783;-84
2022/08/01 06:06:45;;;;;;;0.70;0.20;;;18.60;99.90;;;;;;5016092;28;20578;-84
2022/08/01 06:09:10;;;;;;;0.40;0.20;;;18.60;99.90;;;;;;5016634;28;20229;-84
2022/08/01 06:11:36;;;;;;;2.47;1.00;;;18.60;99.90;;;;;;5016429;28;20174;-82
2022/08/01 06:14:01;;;;;;;0.67;0.50;;;18.70;99.90;;;;;;4998283;28;20185;-80
2022/08/01 06:16:27;;;;;;;0.80;0.57;;;18.80;99.90;;;;;;5016650;28;20208;-85
2022/08/01 06:18:52;;;;;;;0.80;0.40;;;18.90;99.90;;;;;;5016573;28;20182;-91
2022/08/01 06:21:18;;;;;;;0.87;0.20;;;18.90;99.90;;;;;;5016696;28;20252;-84
2022/08/01 06:23:43;;;;;;;1.03;0.37;;;18.80;99.90;;;;;;5016303;28;20179;-84
2022/08/01 06:26:10;;;;;;;1.23;0.67;;;18.90;99.90;;;;;;5016310;28;20197;-85
2022/08/01 06:28:35;;;;;;;2.17;0.93;;;19.20;99.90;;;;;;5016044;28;20171;-83
2022/08/01 06:31:01;;;;;;;1.23;0.40;;;19.30;99.90;;;;;;5016417;28;20438;-88
2022/08/01 06:33:27;;;;;;;0.80;0.33;;;19.00;99.90;;;;;;5016264;28;20417;-84
2022/08/01 06:35:53;;;;;;;2.27;1.13;;;19.00;99.90;;;;;;5015970;28;20177;-79
2022/08/01 06:38:18;;;;;;;1.37;0.80;;;19.00;99.90;;;;;;5015712;28;20472;-85
2022/08/01 06:40:44;;;;;;;2.67;1.67;;;18.90;99.90;;;;;;5016112;28;20175;-84
2022/08/01 06:43:11;;;;;;;2.60;1.03;;;18.90;99.90;;;;;;5015672;28;20179;-84
2022/08/01 06:45:37;;;;;;;2.20;1.70;;;19.10;99.90;;;;;;5016112;28;20189;-84
2022/08/01 06:48:03;;;;;;;3.33;1.70;;;19.30;99.90;;;;;;5016002;28;20425;-82
2022/08/01 06:50:29;;;;;;;2.23;0.93;;;19.60;99.90;;;;;;5015830;28;20464;-83
2022/08/01 06:52:54;;;;;;;2.50;1.90;;;19.40;99.90;;;;;;5015288;28;20579;-82
2022/08/01 06:55:20;;;;;;;1.33;1.03;;;19.20;99.90;;;;;;5015860;28;20167;-82
2022/08/01 06:57:50;;;;;;;1.00;0.43;;;19.30;99.90;;;;;;5015143;28;20206;-83
2022/08/01 07:00:20;;;;;;;2.00;0.60;;;19.40;99.90;;;;;;5015704;28;20583;-82
2022/08/01 07:02:46;;;;;;;2.50;0.43;;;19.30;99.90;;;;;;5015657;28;20421;-82
2022/08/01 07:05:11;;;;;;;1.50;1.13;;;19.00;99.90;;;;;;5015655;28;20777;-82
2022/08/01 07:07:37;;;;;;;1.50;1.00;;;18.90;99.90;;;;;;5014533;28;20167;-82
2022/08/01 07:10:04;;;;;;;1.47;1.10;;;18.80;99.90;;;;;;4997879;28;20171;-83
2022/08/01 07:12:29;;;;;;;2.47;1.50;;;18.70;99.90;;;;;;5015138;28;20222;-83
2022/08/01 07:14:55;;;;;;;3.57;1.73;;;18.80;99.90;;;;;;5015448;28;20413;-82
2022/08/01 07:17:20;;;;;;;1.73;1.37;;;19.10;99.90;;;;;;5015347;28;20296;-82
2022/08/01 07:19:46;;;;;;;1.50;1.40;;;19.40;99.90;;;;;;5015287;28;20176;-81
2022/08/01 07:22:13;;;;;;;1.60;1.50;;;19.60;99.90;;;;;;5015302;28;20572;-80
2022/08/01 07:24:39;;;;;;;2.50;1.87;;;19.80;99.90;;;;;;4997531;28;20425;-83
2022/08/01 07:27:04;;;;;;;2.73;1.50;;;19.70;99.90;;;;;;5014933;28;20469;-82
2022/08/01 07:29:30;;;;;;;3.00;2.43;;;19.70;99.90;;;;;;5015088;28;20281;-81
2022/08/01 07:31:57;;;;;;;2.17;1.23;;;19.50;99.90;;;;;;5015165;28;20172;-81
2022/08/01 07:34:23;;;;;;;1.97;1.67;;;19.30;99.90;;;;;;5015072;28;20182;-81
2022/08/01 07:36:50;;;;;;;1.30;1.10;;;19.10;99.90;;;;;;5014995;28;20936;-81
2022/08/01 07:39:15;;;;;;;4.37;1.43;;;19.00;99.90;;;;;;5014970;28;20975;-81
2022/08/01 07:41:41;;;;;;;2.33;1.30;;;19.10;99.90;;;;;;4996988;28;20421;-81
2022/08/01 07:44:06;;;;;;;2.93;1.50;;;19.30;99.90;;;;;;5014835;28;20258;-82
2022/08/01 07:46:31;;;;;;;1.43;0.73;;;19.30;99.90;;;;;;5014724;28;20178;-81
2022/08/01 07:48:57;;;;;;;4.07;1.00;;;19.20;99.90;;;;;;5014903;28;20586;-80
2022/08/01 07:51:22;;;;;;;3.83;2.30;;;19.00;99.90;;;;;;4997085;28;20713;-80
2022/08/01 07:53:52;;;;;;;2.73;1.40;;;19.00;99.90;;;;;;5014729;28;20213;-81
2022/08/01 07:56:18;;;;;;;2.37;1.07;;;19.00;99.90;;;;;;5013593;28;20206;-81
2022/08/01 07:58:43;;;;;;;2.60;0.80;;;19.00;99.90;;;;;;4996764;28;20486;-81
2022/08/01 08:01:09;;;;;;;2.00;1.27;;;19.10;99.90;;;;;;5014482;28;20665;-81
2022/08/01 08:03:34;;;;;;;1.80;1.40;;;19.10;99.90;;;;;;5014624;28;20182;-81
2022/08/01 08:06:00;;;;;;;5.13;1.50;;;19.10;99.90;;;;;;5014423;28;20178;-81
2022/08/01 08:08:27;;;;;;;4.30;2.10;;;19.10;99.90;;;;;;5014315;28;20203;-81
2022/08/01 08:10:52;;;;;;;3.80;1.83;;;18.90;99.90;;;;;;4996720;28;20208;-81
2022/08/01 08:13:18;;;;;;;2.83;1.20;;;18.80;99.90;;;;;;5013996;28;20463;-83
2022/08/01 08:15:43;;;;;;;2.20;2.00;;;18.80;99.90;;;;;;5014304;28;20589;-81
2022/08/01 08:18:09;;;;;;;3.30;1.70;;;19.00;99.90;;;;;;5014058;28;20218;-81
2022/08/01 08:20:35;;;;;;;2.73;1.90;;;19.00;99.90;;;;;;5014225;28;20171;-81
2022/08/01 08:23:00;;;;;;;2.73;1.60;;;19.10;99.90;;;;;;4996460;28;20182;-81
2022/08/01 08:25:27;;;;;;;5.87;2.47;;;19.20;99.90;;;;;;5014060;28;20181;-81
2022/08/01 08:27:52;;;;;;;2.40;1.57;;;19.30;99.90;;;;;;5013703;28;20181;-82
2022/08/01 08:30:18;;;;;;;3.00;1.20;;;19.70;99.90;;;;;;4996560;28;20413;-81
2022/08/01 08:32:44;;;;;;;4.40;1.37;;;20.10;99.90;;;;;;5013775;28;20167;-82
2022/08/01 08:35:09;;;;;;;1.80;0.40;;;20.80;99.90;;;;;;5014000;28;20172;-81
2022/08/01 08:37:36;;;;;;;1.90;0.60;;;21.10;99.90;;;;;;5013829;28;20211;-83
2022/08/01 08:40:04;;;;;;;4.20;0.77;;;20.90;99.90;;;;;;5013686;28;20176;-84
2022/08/01 08:42:29;;;;;;;2.57;0.50;;;20.60;99.90;;;;;;5013528;28;20426;-82
2022/08/01 08:44:55;;;;;;;1.60;0.70;;;20.60;99.90;;;;;;5013740;28;20777;-82
2022/08/01 08:47:25;;;;;;;0.70;0.20;;;20.60;99.90;;;;;;5013834;28;20525;-81
2022/08/01 08:49:53;;;;;;;1.00;0.20;;;20.60;99.90;;;;;;5013482;28;20264;-81
2022/08/01 08:52:22;;;;;;;1.30;0.40;;;20.50;99.90;;;;;;5013610;28;20516;-81
2022/08/01 08:54:51;;;;;;;1.17;0.33;;;20.40;99.90;;;;;;5013449;28;20432;-81
2022/08/01 08:57:19;;;;;;;1.43;0.50;;;20.40;99.90;;;;;;5013154;28;20473;-82
2022/08/01 08:59:45;;;;;;;2.13;0.73;;;20.30;99.90;;;;;;5023458;28;20471;-82
2022/08/01 09:02:11;;;;;;;2.87;1.00;;;20.00;99.90;;;;;;5013786;28;20950;-81
2022/08/01 09:04:38;;;;;;;1.83;0.30;;;20.10;99.90;;;;;;5012239;28;20548;-82
2022/08/01 09:07:05;;;;;;;3.10;0.23;;;;;;;;;;5013555;28;20508;-82
2022/08/01 09:09:31;;;;;;;1.40;0.87;;;23.50;1.00;;;;;;5013386;28;20425;-82
2022/08/01 09:11:57;;;;;;;1.90;0.40;;;23.80;1.00;;;;;;5013080;28;20410;-82
2022/08/01 09:14:25;;;;;;;5.90;0.30;;;23.60;1.00;;;;;;5013400;28;20415;-82
2022/08/01 09:17:07;;;;;;;1.60;0.40;;;23.20;99.90;;;;;;5013140;28;20202;-82
2022/08/01 09:19:38;;;;;;;2.50;0.30;;;23.20;1.00;;;;;;5013153;28;20418;-83
2022/08/01 09:22:05;;;;;;;1.70;0.30;;;23.30;99.90;;;;;;5013081;28;20468;-82
2022/08/01 09:24:32;;;;;;;0.70;0.20;;;23.60;1.00;;;;;;5013217;28;20873;-82
2022/08/01 09:26:59;;;;;;;2.33;0.20;;;23.20;99.90;;;;;;4994058;28;20793;-82
2022/08/01 09:29:27;;;;;;;0.90;0.20;;;22.80;1.00;;;;;;5012638;28;20417;-82
2022/08/01 09:31:53;;;;;;;1.23;0.50;;;22.60;1.00;;;;;;4994203;28;20874;-82
2022/08/01 09:34:27;;;;;;;1.73;0.20;;;23.30;1.00;;;;;;5007664;28;20544;-82
2022/08/01 09:36:55;;;;;;;0.50;0.20;;;24.10;99.90;;;;;;5012833;28;20220;-82
2022/08/01 09:39:31;;;;;;;0.53;0.30;;;24.00;1.00;;;;;;5013384;28;20425;-82
2022/08/01 09:41:58;;;;;;;1.10;0.20;;;23.90;1.00;;;;;;5012797;28;20413;-82
2022/08/01 09:44:41;;;;;;;0.90;0.67;;;24.60;99.90;;;;;;5013410;28;20422;-82
2022/08/01 09:47:07;;;;;;;1.30;0.30;;;25.90;99.90;;;;;;5013297;28;20765;-83
2022/08/01 09:49:35;;;;;;;4.17;0.33;;;26.30;99.90;;;;;;5013038;28;20454;-83
2022/08/01 09:52:14;;;;;;;2.23;0.40;;;25.20;99.90;;;;;;5013243;28;20190;-83
2022/08/01 09:54:40;;;;;;;0.90;0.40;;;27.10;99.90;;;;;;5013224;28;20869;-82
2022/08/01 09:57:13;;;;;;;1.13;0.40;;;27.40;99.90;;;;;;5012685;28;20454;-84
2022/08/01 09:59:41;;;;;;;1.27;0.63;;;27.50;83.60;;;;;;5013215;28;20414;-83
2022/08/01 10:02:08;;;;;;;1.70;0.23;;;27.90;92.20;;;;;;5013104;28;20508;-84
2022/08/01 10:04:34;;;;;;;1.33;0.40;;;27.80;97.80;;;;;;5013122;28;20426;-83
2022/08/01 10:07:07;;;;;;;1.10;0.20;;;27.90;77.80;;;;;;5013056;28;20891;-84
2022/08/01 10:09:35;;;;;;;1.60;0.37;;;27.80;55.50;;;;;;5012972;28;20206;-82
2022/08/01 10:12:01;;;;;;;1.77;0.30;;;27.90;54.70;;;;;;5012688;28;20414;-82
2022/08/01 10:14:28;;;;;;;1.30;0.60;;;28.10;58.60;;;;;;5012856;28;20916;-83
2022/08/01 10:16:56;;;;;;;1.03;0.30;;;28.40;56.80;;;;;;4995263;28;20843;-82
2022/08/01 10:19:24;;;;;;;1.33;0.40;;;28.90;53.00;;;;;;5012901;28;20423;-83
2022/08/01 10:21:54;;;;;;;1.33;0.40;;;28.90;39.80;;;;;;5012782;28;20433;-81
2022/08/01 10:24:23;;;;;;;1.20;0.30;;;28.70;29.60;;;;;;5012938;28;20422;-82
2022/08/01 10:26:54;;;;;;;2.73;0.40;;;29.00;42.20;;;;;;5012591;28;20422;-83
2022/08/01 10:29:22;;;;;;;2.03;0.80;;;28.00;30.40;;;;;;5012751;28;20428;-82
2022/08/01 10:31:48;;;;;;;0.97;0.53;;;26.50;52.40;;;;;;5012693;28;20468;-82
2022/08/01 10:34:17;;;;;;;2.20;0.83;;;25.40;92.00;;;;;;5013439;28;20429;-84
2022/08/01 10:36:44;;;;;;;2.43;1.20;;;26.00;99.90;;;;;;5012718;28;21064;-82
2022/08/01 10:39:13;;;;;;;3.10;0.63;;;26.30;99.90;;;;;;5012823;28;20958;-84
2022/08/01 10:41:39;;;;;;;1.70;0.50;;;27.10;92.70;;;;;;5012940;28;20416;-86
2022/08/01 10:44:09;;;;;;;1.43;0.50;;;26.70;94.30;;;;;;5031733;28;20457;-87
2022/08/01 10:46:38;;;;;;;2.83;0.67;;;27.40;86.00;;;;;;5016486;28;20925;-86
2022/08/01 10:49:17;;;;;;;2.13;0.57;;;27.80;97.60;;;;;;5016371;28;20414;-84
2022/08/01 10:51:43;;;;;;;2.57;0.73;;;26.20;86.70;;;;;;5016451;28;20433;-85
2022/08/01 10:54:11;;;;;;;1.70;0.50;;;26.50;96.00;;;;;;5016773;28;20420;-85
2022/08/01 10:56:45;;;;;;;1.07;0.50;;;27.10;59.30;;;;;;5015789;28;20461;-84
2022/08/01 10:59:19;;;;;;;0.93;0.63;;;27.80;46.20;;;;;;5016243;28;20616;-85
2022/08/01 11:01:59;;;;;;;3.43;0.60;;;28.20;39.10;;;;;;5016083;28;20854;-84
2022/08/01 11:04:55;;;;;;;1.80;0.60;;;27.50;27.40;;;;;;5016874;28;20422;-82
2022/08/01 11:07:40;;;;;;;1.60;0.30;;;27.90;22.80;;;;;;5016166;28;20775;-81
2022/08/01 11:10:26;;;;;;;1.47;0.60;;;27.60;27.90;;;;;;5016012;28;20406;-83
2022/08/01 11:12:52;;;;;;;3.83;0.90;;;28.40;23.80;;;;;;5008381;28;20422;-82
2022/08/01 11:15:27;;;;;;;1.97;1.10;;;28.70;23.90;;;;;;5015875;28;20425;-82
2022/08/01 11:17:54;;;;;;;1.37;0.53;;;28.90;24.20;;;;;;5015770;28;20477;-84
2022/08/01 11:20:37;;;;;;;2.73;0.70;;;29.00;34.80;;;;;;5015765;28;20489;-83
2022/08/01 11:23:15;;;;;;;1.10;0.30;;;28.60;13.40;;;;;;5015786;28;20406;-83
2022/08/01 11:25:41;;;;;;;0.97;0.20;;;28.50;21.60;;;;;;5015711;28;20429;-83
2022/08/01 11:28:16;;;;;;;0.97;0.37;;;28.00;4.80;;;;;;5030601;28;20418;-83
2022/08/01 11:30:52;;;;;;;1.90;0.43;;;28.20;18.10;;;;;;5015747;28;20781;-82
2022/08/01 11:33:38;;;;;;;1.30;0.40;;;28.90;22.10;;;;;;4997909;28;20427;-82
2022/08/01 11:36:10;;;;;;;1.13;0.40;;;28.30;13.00;;;;;;4997938;28;20425;-82
2022/08/01 11:38:41;;;;;;;0.80;0.20;;;28.50;6.80;;;;;;5015371;28;20485;-83
2022/08/01 11:41:23;;;;;;;1.57;0.20;;;28.40;3.90;;;;;;5015068;28;20420;-82
2022/08/01 11:44:06;;;;;;;2.40;0.30;;;28.80;10.00;;;;;;5015422;28;20926;-82
2022/08/01 11:46:55;;;;;;;2.10;0.33;;;29.10;1.00;;;;;;4997708;28;20422;-83
2022/08/01 11:49:26;;;;;;;1.23;0.20;;;28.90;1.00;;;;;;5014952;28;20985;-83
2022/08/01 11:52:19;;;;;;;1.70;0.20;;;28.30;1.00;;;;;;5015342;28;20453;-83
2022/08/01 11:54:51;;;;;;;1.50;0.30;;;28.80;1.00;;;;;;5015120;28;20414;-83
2022/08/01 11:57:30;;;;;;;2.77;0.37;;;29.20;1.00;;;;;;5014635;28;20469;-83
2022/08/01 11:59:58;;;;;;;1.73;0.30;;;29.20;1.00;;;;;;5015060;28;20410;-83
2022/08/01 12:02:28;;;;;;;2.10;0.23;;;29.10;1.00;;;;;;5015003;28;20428;-83
2022/08/01 12:05:14;;;;;;;2.23;0.30;;;29.30;1.00;;;;;;5014898;28;20552;-84
2022/08/01 12:07:44;;;;;;;1.07;0.20;;;29.20;1.00;;;;;;4997366;28;20436;-83
2022/08/01 12:10:14;;;;;;;1.23;0.30;;;29.00;1.00;;;;;;5030155;28;20422;-83
2022/08/01 12:12:46;;;;;;;1.17;0.40;;;29.30;1.00;;;;;;5014396;28;20478;-83
2022/08/01 12:15:12;;;;;;;1.77;0.20;;;28.90;1.00;;;;;;5030024;28;20528;-83
2022/08/01 12:17:46;;;;;;;1.23;0.20;;;29.20;1.00;;;;;;5014530;28;20555;-83
2022/08/01 12:20:19;;;;;;;2.50;0.20;;;28.90;1.00;;;;;;5014570;28;20563;-83
2022/08/01 12:22:45;;;;;;;2.13;0.30;;;29.00;1.00;;;;;;5014568;28;20418;-83
2022/08/01 12:25:15;;;;;;;1.97;0.20;;;29.10;1.00;;;;;;5014560;28;20414;-84
2022/08/01 12:27:44;;;;;;;0.60;0.20;;;29.00;1.00;;;;;;5014133;28;20632;-84
2022/08/01 12:30:12;;;;;;;1.43;0.30;;;29.00;1.00;;;;;;5014433;28;20422;-83
2022/08/01 12:32:40;;;;;;;0.93;0.37;;;29.20;1.00;;;;;;5014392;28;20481;-84
2022/08/01 12:35:18;;;;;;;1.20;0.27;;;29.20;1.00;;;;;;5029639;28;20418;-83
2022/08/01 12:37:45;;;;;;;0.73;0.20;;;29.30;1.00;;;;;;5013988;28;20476;-83
2022/08/01 12:40:19;;;;;;;0.40;0.20;;;27.70;1.00;;;;;;5015954;28;20449;-83
2022/08/01 12:42:47;;;;;;;2.90;0.20;;;27.90;1.00;;;;;;4995977;28;20426;-84
2022/08/01 12:45:15;;;;;;;0.57;0.20;;;28.20;1.00;;;;;;5013823;28;20973;-83
2022/08/01 12:47:42;;;;;;;2.10;0.43;;;27.60;1.00;;;;;;5013749;28;20460;-83
2022/08/01 12:50:11;;;;;;;1.50;0.60;;;28.10;1.00;;;;;;5013445;28;20453;-83
2022/08/01 12:52:37;;;;;;;0.97;0.20;;;28.40;1.00;;;;;;5013742;28;20480;-83
2022/08/01 12:55:10;;;;;;;1.03;0.30;;;28.40;1.00;;;;;;5013695;28;20910;-84
2022/08/01 12:57:42;;;;;;;0.50;0.20;;;27.70;1.00;;;;;;5013086;28;20568;-84